createdAt,value
2022-09-21T00:04:51.440Z,3.78
2022-09-21T00:09:53.195Z,3.10
2022-09-21T00:14:56.515Z,2.67
2022-09-21T00:19:58.228Z,2.80
2022-09-21T00:25:02.313Z,2.85
2022-09-21T00:30:07.538Z,2.33
2022-09-21T00:35:09.605Z,2.63
2022-09-21T00:40:12.309Z,3.15
2022-09-21T00:45:21.076Z,2.88
2022-09-21T00:50:24.399Z,3.10
2022-09-21T00:55:31.116Z,3.08
2022-09-21T01:00:32.839Z,2.88
2022-09-21T01:05:34.814Z,3.25
2022-09-21T01:10:53.628Z,3.03
2022-09-21T01:16:16.717Z,3.80
2022-09-21T01:21:23.401Z,2.90
2022-09-21T01:26:34.155Z,3.05
2022-09-21T01:32:02.545Z,3.10
2022-09-21T01:37:09.531Z,3.53
2022-09-21T01:42:13.661Z,3.38
2022-09-21T01:47:17.105Z,3.60
2022-09-21T01:52:25.565Z,3.80
2022-09-21T01:57:34.693Z,3.60
2022-09-21T02:07:41.827Z,3.00
2022-09-21T02:12:43.690Z,3.08
2022-09-21T02:18:05.664Z,3.25
2022-09-21T02:23:19.234Z,3.60
2022-09-21T02:28:33.521Z,3.65
2022-09-21T02:34:01.045Z,3.47
2022-09-21T02:39:10.027Z,4.28
2022-09-21T02:44:19.341Z,4.70
2022-09-21T02:49:56.025Z,4.85
2022-09-21T02:54:58.481Z,4.93
2022-09-21T03:00:00.350Z,5.50
2022-09-21T03:05:02.080Z,5.78
2022-09-21T03:10:04.876Z,7.38
2022-09-21T03:15:06.780Z,6.57
2022-09-21T03:20:08.802Z,6.05
2022-09-21T03:25:12.436Z,5.22
2022-09-21T03:30:14.435Z,5.93
2022-09-21T03:35:16.970Z,6.40
2022-09-21T03:40:19.469Z,5.00
2022-09-21T03:45:27.624Z,4.70
2022-09-21T03:50:29.611Z,4.85
2022-09-21T03:55:31.599Z,4.65
2022-09-21T04:00:33.434Z,4.47
2022-09-21T04:05:35.199Z,4.00
2022-09-21T04:10:40.946Z,4.22
2022-09-21T04:15:42.814Z,4.60
2022-09-21T04:20:44.859Z,4.88
2022-09-21T04:25:49.248Z,5.32
2022-09-21T04:30:55.637Z,4.30
2022-09-21T04:35:57.437Z,5.03
2022-09-21T04:40:59.536Z,6.03
2022-09-21T04:46:06.483Z,5.45
2022-09-21T04:51:09.396Z,5.95
2022-09-21T04:56:14.878Z,5.55
2022-09-21T05:01:17.800Z,5.80
2022-09-21T05:06:19.524Z,5.05
2022-09-21T05:11:21.245Z,5.70
2022-09-21T05:16:22.951Z,5.28
2022-09-21T05:21:25.180Z,5.43
2022-09-21T05:26:26.940Z,5.00
2022-09-21T05:31:42.487Z,5.80
2022-09-21T05:36:49.388Z,5.07
2022-09-21T05:41:51.531Z,5.78
2022-09-21T05:47:03.901Z,5.47
2022-09-21T05:52:35.276Z,6.38
2022-09-21T05:57:49.887Z,5.57
2022-09-21T06:02:59.458Z,5.15
2022-09-21T06:08:01.334Z,5.32
2022-09-21T06:13:03.097Z,5.40
2022-09-21T06:18:05.958Z,5.45
2022-09-21T06:23:09.965Z,5.47
2022-09-21T06:28:13.086Z,5.85
2022-09-21T06:33:20.623Z,5.45
2022-09-21T06:38:23.401Z,6.18
2022-09-21T06:43:25.174Z,5.80
2022-09-21T06:48:28.820Z,5.75
2022-09-21T06:53:32.788Z,5.50
2022-09-21T06:58:35.138Z,5.85
2022-09-21T07:03:38.547Z,5.53
2022-09-21T07:14:02.127Z,5.90
2022-09-21T07:19:11.152Z,5.90
2022-09-21T07:24:14.983Z,7.40
2022-09-21T07:29:16.708Z,5.63
2022-09-21T07:34:18.520Z,5.82
2022-09-21T07:39:20.228Z,5.95
2022-09-21T07:44:22.644Z,5.90
2022-09-21T07:49:24.446Z,5.93
2022-09-21T07:54:26.171Z,5.50
2022-09-21T07:59:28.287Z,5.85
2022-09-21T08:04:30.156Z,5.38
2022-09-21T08:09:32.104Z,5.20
2022-09-21T08:14:34.605Z,5.43
2022-09-21T08:19:36.391Z,5.57
2022-09-21T08:24:38.902Z,4.93
2022-09-21T08:29:40.686Z,4.85
2022-09-21T08:34:42.409Z,4.57
2022-09-21T08:39:44.197Z,4.53
2022-09-21T08:44:53.791Z,4.32
2022-09-21T08:50:01.836Z,4.53
2022-09-21T08:55:17.910Z,3.95
2022-09-21T09:00:20.417Z,4.28
2022-09-21T09:05:34.297Z,4.50
2022-09-21T09:10:45.332Z,4.35
2022-09-21T09:16:08.469Z,4.60
2022-09-21T09:21:30.751Z,4.05
2022-09-21T09:26:45.832Z,4.20
2022-09-21T09:31:50.104Z,4.47
2022-09-21T09:36:59.565Z,3.90
2022-09-21T09:42:28.339Z,3.42
2022-09-21T09:48:01.049Z,3.78
2022-09-21T09:53:21.818Z,3.40
2022-09-21T09:58:26.122Z,2.50
2022-09-21T10:03:28.468Z,2.72
2022-09-21T10:08:47.243Z,2.00
2022-09-21T10:13:49.569Z,3.00
2022-09-21T10:18:58.931Z,2.30
2022-09-21T10:29:18.545Z,2.63
2022-09-21T10:34:20.311Z,2.10
2022-09-21T10:39:24.828Z,2.10
2022-09-21T10:44:39.648Z,1.65
2022-09-21T10:49:46.306Z,1.38
2022-09-21T10:54:52.175Z,1.55
2022-09-21T10:59:54.281Z,1.30
2022-09-21T11:05:22.914Z,1.17
2022-09-21T11:10:39.519Z,1.20
2022-09-21T11:15:51.766Z,0.90
2022-09-21T11:20:59.582Z,1.10
2022-09-21T11:26:15.194Z,0.90
2022-09-21T11:31:58.630Z,0.90
2022-09-21T11:37:27.284Z,0.80
2022-09-21T11:42:55.689Z,1.10
2022-09-21T11:47:57.377Z,1.00
2022-09-21T11:53:28.675Z,0.93
2022-09-21T11:58:34.356Z,1.00
2022-09-21T12:04:14.062Z,1.17
2022-09-21T12:09:53.212Z,0.90
2022-09-21T12:15:28.909Z,0.77
2022-09-21T12:21:06.192Z,0.98
2022-09-21T12:26:10.587Z,0.60
2022-09-21T12:31:25.715Z,0.77
2022-09-21T12:37:05.307Z,0.50
2022-09-21T12:42:26.831Z,0.67
2022-09-21T12:47:34.525Z,0.90
2022-09-21T12:52:37.574Z,1.10
2022-09-21T12:58:20.888Z,1.48
2022-09-21T13:03:44.825Z,0.90
2022-09-21T13:14:02.692Z,1.30
2022-09-21T13:19:13.395Z,0.82
2022-09-21T13:24:30.604Z,0.88
2022-09-21T13:29:34.792Z,0.70
2022-09-21T13:34:38.497Z,1.02
2022-09-21T13:39:58.793Z,0.90
2022-09-21T13:45:15.603Z,1.52
2022-09-21T13:50:31.417Z,1.50
2022-09-21T13:55:39.875Z,1.58
2022-09-21T14:00:51.875Z,1.40
2022-09-21T14:06:01.097Z,1.30
2022-09-21T14:11:10.176Z,1.10
2022-09-21T14:16:47.542Z,1.00
2022-09-21T14:22:05.426Z,0.75
2022-09-21T14:27:28.663Z,0.80
2022-09-21T14:32:38.663Z,1.00
2022-09-21T14:37:52.051Z,0.90
2022-09-21T14:42:55.533Z,0.90
2022-09-21T14:48:30.636Z,1.00
2022-09-21T14:54:17.722Z,0.90
2022-09-21T14:59:35.751Z,0.80
2022-09-21T15:04:45.939Z,0.70
2022-09-21T15:10:41.030Z,0.73
2022-09-21T15:16:23.403Z,1.77
2022-09-21T15:21:27.994Z,1.00
2022-09-21T15:26:34.526Z,0.73
2022-09-21T15:31:39.270Z,0.82
2022-09-21T15:36:42.992Z,1.00
2022-09-21T15:41:47.531Z,1.10
2022-09-21T15:46:53.197Z,0.98
2022-09-21T15:52:05.233Z,0.70
2022-09-21T15:57:25.305Z,0.80
2022-09-21T16:02:34.183Z,0.70
2022-09-21T16:07:37.877Z,1.40
2022-09-21T16:12:44.138Z,1.30
2022-09-21T16:18:03.442Z,1.38
2022-09-21T16:23:11.901Z,1.25
2022-09-21T16:28:17.204Z,1.02
2022-09-21T16:33:44.175Z,1.50
2022-09-21T16:38:47.177Z,0.93
2022-09-21T16:43:50.956Z,1.02
2022-09-21T16:48:54.948Z,1.65
2022-09-21T16:53:56.717Z,1.20
2022-09-21T16:59:03.627Z,1.88
2022-09-21T17:04:05.387Z,2.08
2022-09-21T17:09:27.071Z,1.40
2022-09-21T17:14:35.706Z,2.33
2022-09-21T17:19:37.555Z,2.67
2022-09-21T17:24:50.264Z,8.98
2022-09-21T17:29:55.096Z,3.00
2022-09-21T17:35:30.940Z,4.32
2022-09-21T17:40:33.026Z,4.60
2022-09-21T17:46:10.175Z,3.15
2022-09-21T17:51:12.260Z,3.05
2022-09-21T17:56:40.076Z,3.10
2022-09-21T18:01:42.069Z,3.70
2022-09-21T18:06:44.146Z,3.85
2022-09-21T18:12:18.336Z,3.60
2022-09-21T18:17:58.460Z,3.45
2022-09-21T18:23:31.875Z,4.70
2022-09-21T18:28:42.162Z,4.63
2022-09-21T18:34:13.179Z,4.07
2022-09-21T18:39:21.065Z,3.20
2022-09-21T18:44:53.276Z,3.97
2022-09-21T18:50:11.076Z,4.28
2022-09-21T18:55:28.891Z,4.50
2022-09-21T19:00:31.579Z,4.28
2022-09-21T19:05:33.867Z,4.20
2022-09-21T19:10:39.108Z,2.50
2022-09-21T19:16:07.646Z,2.47
2022-09-21T19:21:40.274Z,2.70
2022-09-21T19:27:17.057Z,2.90
2022-09-21T19:32:30.996Z,4.13
2022-09-21T19:37:32.839Z,3.70
2022-09-21T19:42:54.743Z,4.20
2022-09-21T19:48:04.771Z,5.13
2022-09-21T19:53:25.157Z,4.70
2022-09-21T19:58:45.849Z,4.40
2022-09-21T20:03:48.584Z,4.88
2022-09-21T20:09:12.606Z,4.10
2022-09-21T20:14:43.538Z,4.10
2022-09-21T20:19:57.406Z,4.90
2022-09-21T20:25:16.815Z,4.50
2022-09-21T20:30:22.372Z,5.10
2022-09-21T20:35:26.810Z,4.75
2022-09-21T20:40:29.331Z,5.45
2022-09-21T20:45:33.141Z,5.55
2022-09-21T20:50:34.865Z,5.38
2022-09-21T20:55:37.102Z,6.10
2022-09-21T21:00:39.174Z,5.72
2022-09-21T21:05:40.958Z,5.32
2022-09-21T21:10:46.789Z,5.78
2022-09-21T21:15:53.030Z,5.85
2022-09-21T21:20:54.837Z,6.03
2022-09-21T21:25:59.128Z,8.50
2022-09-21T21:31:01.038Z,5.65
2022-09-21T21:36:07.423Z,5.32
2022-09-21T21:41:12.621Z,5.07
2022-09-21T21:46:14.389Z,5.03
2022-09-21T21:51:16.112Z,4.70
2022-09-21T21:56:20.027Z,5.40
2022-09-21T22:01:24.571Z,5.57
2022-09-21T22:06:27.625Z,5.10
2022-09-21T22:11:30.913Z,5.20
2022-09-21T22:16:34.384Z,5.10
2022-09-21T22:21:51.700Z,5.00
2022-09-21T22:26:55.785Z,4.47
2022-09-21T22:31:57.731Z,4.30
2022-09-21T22:37:00.549Z,4.15
2022-09-21T22:42:03.327Z,4.82
2022-09-21T22:47:05.249Z,4.15
2022-09-21T22:52:07.486Z,4.15
2022-09-21T22:57:09.206Z,3.30
2022-09-21T23:02:11.667Z,3.58
2022-09-21T23:07:14.739Z,3.60
2022-09-21T23:12:18.129Z,3.55
2022-09-21T23:17:19.833Z,3.83
2022-09-21T23:22:21.606Z,4.05
2022-09-21T23:27:23.340Z,4.07
2022-09-21T23:32:25.928Z,3.42
2022-09-21T23:37:28.666Z,3.70
2022-09-21T23:42:30.425Z,3.35
2022-09-21T23:47:32.149Z,3.70
2022-09-21T23:52:33.882Z,3.72
2022-09-21T23:57:35.607Z,3.65
